createdAt,value
2022-11-02T00:01:09.185Z,8.90
2022-11-02T00:03:36.357Z,8.90
2022-11-02T00:06:03.522Z,8.90
2022-11-02T00:08:30.610Z,8.90
2022-11-02T00:10:59.892Z,8.90
2022-11-02T00:13:27.014Z,9.00
2022-11-02T00:15:54.236Z,9.00
2022-11-02T00:18:21.454Z,8.90
2022-11-02T00:20:49.503Z,8.90
2022-11-02T00:23:17.249Z,8.80
2022-11-02T00:25:45.307Z,8.80
2022-11-02T00:28:13.224Z,8.80
2022-11-02T00:30:40.606Z,8.80
2022-11-02T00:33:08.170Z,8.80
2022-11-02T00:35:36.013Z,8.70
2022-11-02T00:38:03.640Z,8.70
2022-11-02T00:40:31.095Z,8.70
2022-11-02T00:42:58.151Z,8.70
2022-11-02T00:45:25.374Z,8.70
2022-11-02T00:47:52.536Z,8.60
2022-11-02T00:50:19.683Z,8.70
2022-11-02T00:52:46.843Z,8.70
2022-11-02T00:55:15.377Z,8.70
2022-11-02T00:57:42.631Z,8.60
2022-11-02T01:00:10.523Z,8.60
2022-11-02T01:02:38.381Z,8.60
2022-11-02T01:05:06.177Z,8.60
2022-11-02T01:07:33.377Z,8.60
2022-11-02T01:10:00.527Z,8.50
2022-11-02T01:12:28.945Z,8.60
2022-11-02T01:14:56.096Z,8.60
2022-11-02T01:17:23.243Z,8.60
2022-11-02T01:19:53.616Z,8.50
2022-11-02T01:22:21.856Z,8.50
2022-11-02T01:24:49.122Z,8.50
2022-11-02T01:27:16.411Z,8.50
2022-11-02T01:29:43.586Z,8.50
2022-11-02T01:32:13.735Z,8.50
2022-11-02T01:34:40.780Z,8.50
2022-11-02T01:37:08.057Z,8.50
2022-11-02T01:39:35.206Z,8.50
2022-11-02T01:42:02.542Z,8.50
2022-11-02T01:44:34.237Z,8.50
2022-11-02T01:47:20.224Z,8.50
2022-11-02T01:49:49.527Z,8.50
2022-11-02T01:52:42.729Z,8.50
2022-11-02T01:55:20.689Z,8.50
2022-11-02T01:57:50.230Z,8.50
2022-11-02T02:00:18.520Z,8.50
2022-11-02T02:02:57.494Z,8.40
2022-11-02T02:05:25.081Z,8.50
2022-11-02T02:07:52.752Z,8.40
2022-11-02T02:10:20.232Z,8.40
2022-11-02T02:12:48.444Z,8.50
2022-11-02T02:15:15.812Z,8.50
2022-11-02T02:18:01.859Z,8.50
2022-11-02T02:20:35.078Z,8.50
2022-11-02T02:23:08.100Z,8.50
2022-11-02T02:25:51.001Z,8.40
2022-11-02T02:28:30.152Z,8.50
2022-11-02T02:31:03.339Z,8.40
2022-11-02T02:33:36.048Z,8.40
2022-11-02T02:36:08.356Z,8.50
2022-11-02T02:38:48.204Z,8.40
2022-11-02T02:41:22.547Z,8.50
2022-11-02T02:43:50.914Z,8.40
2022-11-02T02:46:23.317Z,8.50
2022-11-02T02:48:52.040Z,8.50
2022-11-02T02:51:21.003Z,8.50
2022-11-02T02:53:49.813Z,8.50
2022-11-02T02:56:19.274Z,8.60
2022-11-02T02:58:49.270Z,8.60
2022-11-02T03:01:17.284Z,8.50
2022-11-02T03:03:45.015Z,8.50
2022-11-02T03:06:31.114Z,8.50
2022-11-02T03:09:05.595Z,8.50
2022-11-02T03:11:34.935Z,8.50
2022-11-02T03:14:19.192Z,8.50
2022-11-02T03:16:49.902Z,8.40
2022-11-02T03:19:23.532Z,8.40
2022-11-02T03:21:56.376Z,8.40
2022-11-02T03:24:27.609Z,8.50
2022-11-02T03:26:57.688Z,8.40
2022-11-02T03:29:42.627Z,8.40
2022-11-02T03:32:12.333Z,8.40
2022-11-02T03:34:41.516Z,8.50
2022-11-02T03:37:17.176Z,8.50
2022-11-02T03:40:07.061Z,8.40
2022-11-02T03:42:35.501Z,8.40
2022-11-02T03:45:12.372Z,8.50
2022-11-02T03:47:44.851Z,8.50
2022-11-02T03:50:13.414Z,8.50
2022-11-02T03:52:42.135Z,8.50
2022-11-02T03:55:14.633Z,8.50
2022-11-02T03:57:44.826Z,8.50
2022-11-02T04:00:16.771Z,8.50
2022-11-02T04:02:50.881Z,8.50
2022-11-02T04:05:18.745Z,8.50
2022-11-02T04:08:08.601Z,8.50
2022-11-02T04:10:35.786Z,8.50
2022-11-02T04:13:23.733Z,8.50
2022-11-02T04:15:51.967Z,8.50
2022-11-02T04:18:45.461Z,8.40
2022-11-02T04:21:12.994Z,8.50
2022-11-02T04:24:03.526Z,8.60
2022-11-02T04:26:30.698Z,8.50
2022-11-02T04:28:57.919Z,8.50
2022-11-02T04:31:25.069Z,8.50
2022-11-02T04:33:52.187Z,8.50
2022-11-02T04:36:19.414Z,8.50
2022-11-02T04:38:46.578Z,8.50
2022-11-02T04:41:39.527Z,8.50
2022-11-02T04:44:07.006Z,8.50
2022-11-02T04:46:37.624Z,8.50
2022-11-02T04:49:04.990Z,8.50
2022-11-02T04:51:32.261Z,8.50
2022-11-02T04:54:01.545Z,8.50
2022-11-02T04:56:29.803Z,8.50
2022-11-02T04:58:58.230Z,8.50
2022-11-02T05:01:28.769Z,8.50
2022-11-02T05:03:57.291Z,8.50
2022-11-02T05:06:25.144Z,8.50
2022-11-02T05:08:52.625Z,8.50
2022-11-02T05:11:19.899Z,8.50
2022-11-02T05:13:47.015Z,8.50
2022-11-02T05:16:16.230Z,8.50
2022-11-02T05:18:43.880Z,8.50
2022-11-02T05:21:11.809Z,8.50
2022-11-02T05:23:39.358Z,8.50
2022-11-02T05:26:07.712Z,8.50
2022-11-02T05:28:34.994Z,8.60
2022-11-02T05:31:03.032Z,8.50
2022-11-02T05:33:31.673Z,8.50
2022-11-02T05:35:59.797Z,8.50
2022-11-02T05:38:27.540Z,8.50
2022-11-02T05:40:55.538Z,8.50
2022-11-02T05:43:23.083Z,8.60
2022-11-02T05:45:57.402Z,8.60
2022-11-02T05:48:25.363Z,8.60
2022-11-02T05:50:56.032Z,8.60
2022-11-02T05:53:24.827Z,8.60
2022-11-02T05:55:51.991Z,8.60
2022-11-02T05:58:19.082Z,8.60
2022-11-02T06:00:46.399Z,8.70
2022-11-02T06:03:13.496Z,8.60
2022-11-02T06:05:40.674Z,8.60
2022-11-02T06:08:07.887Z,8.70
2022-11-02T06:10:35.112Z,8.60
2022-11-02T06:13:03.109Z,8.60
2022-11-02T06:15:32.657Z,8.60
2022-11-02T06:18:00.227Z,8.70
2022-11-02T06:20:27.314Z,8.70
2022-11-02T06:22:54.465Z,8.60
2022-11-02T06:25:21.533Z,8.60
2022-11-02T06:27:54.184Z,8.60
2022-11-02T06:30:21.759Z,8.70
2022-11-02T06:32:49.378Z,8.70
2022-11-02T06:35:18.167Z,8.70
2022-11-02T06:37:45.793Z,8.70
2022-11-02T06:40:13.573Z,8.80
2022-11-02T06:42:45.302Z,8.80
2022-11-02T06:45:17.686Z,8.70
2022-11-02T06:47:44.885Z,8.70
2022-11-02T06:50:12.246Z,8.80
2022-11-02T06:52:46.576Z,8.80
2022-11-02T06:55:15.211Z,8.90
2022-11-02T06:57:42.825Z,8.80
2022-11-02T07:00:14.629Z,8.90
2022-11-02T07:02:59.465Z,8.90
2022-11-02T07:05:26.574Z,8.90
2022-11-02T07:07:54.661Z,8.90
2022-11-02T07:10:22.251Z,8.90
2022-11-02T07:12:51.926Z,8.80
2022-11-02T07:15:19.102Z,8.90
2022-11-02T07:17:46.465Z,8.90
2022-11-02T07:20:15.548Z,8.90
2022-11-02T07:22:44.339Z,8.90
2022-11-02T07:25:11.529Z,8.90
2022-11-02T07:27:39.536Z,8.90
2022-11-02T07:30:07.410Z,8.90
2022-11-02T07:32:44.293Z,8.90
2022-11-02T07:35:12.860Z,8.90
2022-11-02T07:37:40.810Z,9.00
2022-11-02T07:40:09.217Z,9.00
2022-11-02T07:42:36.441Z,9.00
2022-11-02T07:45:03.734Z,9.10
2022-11-02T07:47:31.262Z,9.10
2022-11-02T07:49:59.968Z,9.10
2022-11-02T07:52:27.116Z,9.10
2022-11-02T07:54:54.570Z,9.10
2022-11-02T07:57:21.846Z,9.10
2022-11-02T07:59:49.096Z,9.20
2022-11-02T08:02:16.295Z,9.20
2022-11-02T08:04:45.050Z,9.10
2022-11-02T08:07:15.364Z,9.10
2022-11-02T08:09:47.435Z,9.10
2022-11-02T08:12:14.571Z,9.20
2022-11-02T08:14:42.463Z,9.20
2022-11-02T08:17:11.818Z,9.20
2022-11-02T08:19:41.367Z,9.20
2022-11-02T08:22:08.646Z,9.20
2022-11-02T08:24:38.484Z,9.30
2022-11-02T08:27:05.667Z,9.30
2022-11-02T08:29:34.417Z,9.30
2022-11-02T08:32:01.573Z,9.30
2022-11-02T08:34:28.771Z,9.30
2022-11-02T08:36:55.940Z,9.30
2022-11-02T08:39:23.075Z,9.30
2022-11-02T08:41:50.381Z,9.30
2022-11-02T08:44:17.523Z,9.30
2022-11-02T08:46:49.106Z,9.40
2022-11-02T08:49:18.880Z,9.40
2022-11-02T08:51:48.826Z,9.40
2022-11-02T08:54:18.987Z,9.50
2022-11-02T08:56:49.117Z,9.50
2022-11-02T08:59:16.278Z,9.50
2022-11-02T09:01:43.446Z,9.60
2022-11-02T09:04:15.129Z,9.60
2022-11-02T09:06:42.322Z,9.70
2022-11-02T09:09:09.514Z,9.70
2022-11-02T09:11:36.724Z,9.60
2022-11-02T09:14:03.925Z,9.80
2022-11-02T09:16:31.223Z,9.70
2022-11-02T09:18:58.309Z,9.70
2022-11-02T09:21:25.415Z,9.70
2022-11-02T09:23:52.561Z,9.70
2022-11-02T09:26:20.192Z,9.80
2022-11-02T09:28:47.360Z,9.70
2022-11-02T09:31:14.929Z,9.70
2022-11-02T09:33:42.078Z,9.70
2022-11-02T09:36:09.650Z,9.80
2022-11-02T09:38:36.842Z,9.80
2022-11-02T09:41:19.241Z,9.80
2022-11-02T09:43:58.585Z,9.80
2022-11-02T09:46:27.498Z,9.80
2022-11-02T09:48:57.567Z,9.80
2022-11-02T09:51:41.986Z,9.90
2022-11-02T09:54:13.107Z,10.00
2022-11-02T09:56:42.284Z,10.00
2022-11-02T09:59:14.112Z,9.90
2022-11-02T10:01:51.137Z,9.80
2022-11-02T10:04:36.240Z,9.80
2022-11-02T10:07:09.066Z,9.70
2022-11-02T10:09:55.383Z,9.80
2022-11-02T10:12:26.110Z,9.80
2022-11-02T10:15:00.185Z,9.80
2022-11-02T10:17:29.519Z,9.80
2022-11-02T10:20:02.223Z,9.80
2022-11-02T10:22:32.807Z,9.80
2022-11-02T10:25:01.444Z,9.80
2022-11-02T10:27:30.294Z,9.90
2022-11-02T10:29:57.431Z,9.80
2022-11-02T10:32:24.605Z,9.90
2022-11-02T10:35:04.367Z,9.80
2022-11-02T10:37:44.675Z,9.80
2022-11-02T10:40:30.039Z,9.90
2022-11-02T10:43:15.849Z,9.90
2022-11-02T10:46:03.202Z,9.90
2022-11-02T10:48:36.554Z,9.90
2022-11-02T10:51:11.081Z,9.90
2022-11-02T10:53:46.083Z,9.90
2022-11-02T10:56:18.034Z,9.90
2022-11-02T10:59:03.903Z,9.90
2022-11-02T11:01:36.598Z,9.90
2022-11-02T11:04:15.113Z,9.90
2022-11-02T11:06:43.580Z,9.90
2022-11-02T11:09:22.649Z,9.90
2022-11-02T11:11:54.629Z,9.90
2022-11-02T11:20:07.222Z,9.90
2022-11-02T11:22:38.828Z,9.90
2022-11-02T11:25:27.958Z,10.00
2022-11-02T11:27:57.168Z,10.00
2022-11-02T11:30:58.247Z,9.90
2022-11-02T11:33:19.789Z,9.90
2022-11-02T11:35:51.086Z,9.90
2022-11-02T11:38:19.816Z,10.00
2022-11-02T11:40:54.365Z,10.00
2022-11-02T11:43:23.580Z,10.00
2022-11-02T11:46:05.690Z,9.90
2022-11-02T11:48:39.622Z,9.90
2022-11-02T11:51:39.102Z,9.90
2022-11-02T11:54:18.438Z,9.90
2022-11-02T11:56:46.592Z,9.90
2022-11-02T11:59:22.425Z,9.90
2022-11-02T12:01:51.030Z,9.90
2022-11-02T12:04:28.604Z,9.90
2022-11-02T12:07:12.178Z,9.90
2022-11-02T12:09:54.896Z,9.90
2022-11-02T12:12:43.068Z,9.90
2022-11-02T12:15:29.063Z,9.90
2022-11-02T12:18:12.364Z,9.90
2022-11-02T12:21:05.773Z,10.00
2022-11-02T12:23:50.332Z,10.00
2022-11-02T12:26:21.029Z,9.90
2022-11-02T12:28:57.444Z,9.90
2022-11-02T12:31:24.710Z,9.90
2022-11-02T12:34:00.329Z,9.90
2022-11-02T12:36:42.351Z,9.90
2022-11-02T12:39:41.436Z,9.80
2022-11-02T12:42:25.718Z,9.90
2022-11-02T12:44:59.126Z,10.00
2022-11-02T12:47:32.398Z,10.00
2022-11-02T12:50:19.801Z,10.00
2022-11-02T12:53:02.116Z,10.00
2022-11-02T12:55:39.745Z,10.00
2022-11-02T12:58:18.162Z,9.90
2022-11-02T13:00:45.843Z,9.90
2022-11-02T13:03:26.663Z,9.90
2022-11-02T13:05:55.913Z,9.90
2022-11-02T13:08:30.608Z,10.00
2022-11-02T13:11:03.299Z,10.00
2022-11-02T13:13:33.672Z,10.00
2022-11-02T13:16:09.254Z,9.90
2022-11-02T13:19:03.723Z,9.90
2022-11-02T13:21:38.493Z,9.80
2022-11-02T13:24:12.218Z,9.90
2022-11-02T13:26:42.811Z,9.90
2022-11-02T13:29:17.946Z,9.90
2022-11-02T13:31:48.608Z,9.80
2022-11-02T13:34:18.532Z,9.80
2022-11-02T13:36:46.765Z,9.80
2022-11-02T13:39:34.273Z,9.80
2022-11-02T13:42:08.932Z,9.80
2022-11-02T13:44:39.148Z,9.80
2022-11-02T13:47:22.928Z,9.80
2022-11-02T13:49:52.287Z,9.80
2022-11-02T13:52:23.049Z,9.90
2022-11-02T13:54:54.973Z,9.90
2022-11-02T13:57:25.373Z,9.80
2022-11-02T13:59:53.067Z,9.80
2022-11-02T14:02:22.039Z,9.80
2022-11-02T14:04:49.342Z,9.80
2022-11-02T14:07:23.476Z,9.80
2022-11-02T14:09:51.343Z,9.80
2022-11-02T14:12:24.913Z,9.80
2022-11-02T14:15:11.921Z,9.80
2022-11-02T14:18:11.832Z,9.90
2022-11-02T14:20:39.042Z,9.80
2022-11-02T14:23:13.168Z,9.80
2022-11-02T14:25:46.415Z,9.80
2022-11-02T14:28:26.624Z,9.90
2022-11-02T14:31:06.158Z,9.80
2022-11-02T14:33:43.348Z,9.80
2022-11-02T14:36:19.252Z,9.80
2022-11-02T14:38:50.505Z,9.80
2022-11-02T14:41:36.788Z,9.80
2022-11-02T14:44:03.867Z,9.80
2022-11-02T14:46:45.630Z,9.80
2022-11-02T14:49:21.286Z,9.80
2022-11-02T14:52:05.831Z,9.80
2022-11-02T14:54:54.985Z,9.80
2022-11-02T14:57:28.953Z,9.80
2022-11-02T14:59:58.210Z,9.80
2022-11-02T15:02:26.551Z,9.80
2022-11-02T15:04:56.012Z,9.80
2022-11-02T15:07:28.171Z,9.80
2022-11-02T15:09:57.677Z,9.80
2022-11-02T15:12:44.132Z,9.80
2022-11-02T15:15:30.073Z,9.80
2022-11-02T15:17:57.224Z,9.80
2022-11-02T15:20:28.509Z,9.80
2022-11-02T15:22:59.108Z,9.70
2022-11-02T15:25:33.037Z,9.80
2022-11-02T15:28:13.442Z,9.80
2022-11-02T15:30:49.727Z,9.80
2022-11-02T15:33:31.887Z,9.90
2022-11-02T15:36:00.753Z,9.80
2022-11-02T15:38:33.912Z,9.80
2022-11-02T15:41:16.123Z,9.80
2022-11-02T15:44:09.367Z,9.80
2022-11-02T15:46:40.107Z,9.80
2022-11-02T15:49:26.220Z,9.80
2022-11-02T15:52:00.268Z,9.80
2022-11-02T15:54:31.305Z,9.90
2022-11-02T15:57:08.073Z,9.90
2022-11-02T15:59:38.652Z,9.80
2022-11-02T16:02:20.149Z,9.80
2022-11-02T16:04:53.059Z,9.90
2022-11-02T16:07:21.229Z,9.80
2022-11-02T16:09:48.550Z,9.80
2022-11-02T16:12:26.362Z,9.80
2022-11-02T16:15:09.909Z,9.80
2022-11-02T16:17:37.910Z,9.80
2022-11-02T16:20:10.024Z,9.80
2022-11-02T16:22:37.186Z,9.80
2022-11-02T16:25:16.878Z,9.90
2022-11-02T16:27:44.971Z,9.90
2022-11-02T16:30:23.094Z,9.90
2022-11-02T16:32:53.309Z,9.80
2022-11-02T16:38:05.815Z,9.80
2022-11-02T16:40:33.234Z,9.80
2022-11-02T16:43:00.368Z,9.80
2022-11-02T16:45:34.868Z,9.90
2022-11-02T16:48:17.619Z,9.90
2022-11-02T16:51:21.353Z,9.80
2022-11-02T16:53:48.380Z,9.90
2022-11-02T16:56:18.255Z,9.90
2022-11-02T16:58:49.158Z,9.90
2022-11-02T17:01:21.227Z,9.90
2022-11-02T17:03:49.178Z,10.00
2022-11-02T17:06:18.120Z,9.90
2022-11-02T17:08:50.471Z,9.90
2022-11-02T17:11:18.282Z,9.90
2022-11-02T17:13:55.933Z,9.90
2022-11-02T17:16:23.065Z,9.90
2022-11-02T17:18:50.582Z,9.90
2022-11-02T17:21:28.485Z,10.00
2022-11-02T17:23:57.249Z,10.00
2022-11-02T17:26:27.442Z,10.00
2022-11-02T17:29:14.578Z,9.90
2022-11-02T17:31:45.048Z,9.90
2022-11-02T17:34:18.030Z,10.00
2022-11-02T17:36:46.198Z,10.00
2022-11-02T17:39:14.353Z,10.00
2022-11-02T17:42:00.168Z,10.00
2022-11-02T17:44:27.641Z,10.00
2022-11-02T17:46:55.176Z,9.90
2022-11-02T17:49:30.582Z,10.00
2022-11-02T17:51:57.750Z,10.10
2022-11-02T17:54:24.818Z,10.10
2022-11-02T17:56:52.235Z,10.10
2022-11-02T17:59:19.390Z,10.10
2022-11-02T18:01:46.634Z,10.10
2022-11-02T18:04:15.276Z,10.10
2022-11-02T18:06:44.483Z,10.10
2022-11-02T18:09:11.689Z,10.10
2022-11-02T18:11:38.863Z,10.20
2022-11-02T18:14:06.827Z,10.30
2022-11-02T18:16:33.973Z,10.20
2022-11-02T18:19:01.226Z,10.20
2022-11-02T18:21:28.467Z,10.30
2022-11-02T18:23:55.924Z,10.30
2022-11-02T18:26:23.028Z,10.30
2022-11-02T18:28:50.192Z,10.40
2022-11-02T18:31:18.775Z,10.40
2022-11-02T18:33:48.801Z,10.30
2022-11-02T18:36:36.656Z,10.30
2022-11-02T18:39:06.451Z,10.30
2022-11-02T18:41:38.771Z,10.40
2022-11-02T18:44:14.995Z,10.40
2022-11-02T18:46:43.807Z,10.30
2022-11-02T18:49:13.275Z,10.40
2022-11-02T18:51:46.190Z,10.40
2022-11-02T18:54:20.117Z,10.40
2022-11-02T18:56:47.689Z,10.50
2022-11-02T18:59:16.614Z,10.40
2022-11-02T19:01:46.196Z,10.50
2022-11-02T19:04:17.558Z,10.50
2022-11-02T19:07:04.151Z,10.50
2022-11-02T19:09:35.703Z,10.50
2022-11-02T19:12:07.394Z,10.50
2022-11-02T19:14:42.213Z,10.50
2022-11-02T19:17:10.842Z,10.50
2022-11-02T19:19:42.502Z,10.50
2022-11-02T19:22:11.850Z,10.50
2022-11-02T19:24:40.242Z,10.50
2022-11-02T19:27:11.970Z,10.50
2022-11-02T19:29:39.067Z,10.50
2022-11-02T19:32:08.422Z,10.50
2022-11-02T19:34:38.836Z,10.50
2022-11-02T19:37:07.440Z,10.40
2022-11-02T19:39:34.940Z,10.40
2022-11-02T19:42:04.626Z,10.40
2022-11-02T19:44:32.605Z,10.30
2022-11-02T19:47:00.161Z,10.40
2022-11-02T19:49:28.256Z,10.30
2022-11-02T19:51:56.627Z,10.30
2022-11-02T19:54:23.861Z,10.30
2022-11-02T19:56:51.200Z,10.30
2022-11-02T19:59:20.540Z,10.30
2022-11-02T20:01:53.657Z,10.20
2022-11-02T20:04:22.705Z,10.20
2022-11-02T20:06:50.767Z,10.10
2022-11-02T20:09:20.288Z,10.10
2022-11-02T20:11:48.586Z,10.10
2022-11-02T20:14:18.866Z,10.10
2022-11-02T20:16:58.317Z,10.10
2022-11-02T20:19:33.246Z,10.20
2022-11-02T20:22:01.319Z,10.30
2022-11-02T20:24:31.719Z,10.30
2022-11-02T20:27:03.565Z,10.20
2022-11-02T20:29:31.395Z,10.20
2022-11-02T20:32:01.337Z,10.10
2022-11-02T20:34:29.329Z,10.10
2022-11-02T20:36:58.739Z,10.10
2022-11-02T20:39:26.799Z,10.10
2022-11-02T20:41:57.725Z,10.10
2022-11-02T20:44:26.832Z,10.10
2022-11-02T20:46:55.745Z,10.00
2022-11-02T20:49:48.879Z,10.00
2022-11-02T20:52:11.584Z,10.10
2022-11-02T20:54:40.402Z,10.10
2022-11-02T20:57:10.734Z,10.20
2022-11-02T20:59:38.579Z,10.20
2022-11-02T21:02:07.683Z,10.10
2022-11-02T21:04:35.904Z,10.10
2022-11-02T21:07:04.049Z,10.00
2022-11-02T21:09:31.275Z,10.00
2022-11-02T21:12:18.608Z,10.00
2022-11-02T21:14:46.081Z,9.90
2022-11-02T21:17:14.250Z,9.90
2022-11-02T21:19:42.086Z,10.00
2022-11-02T21:22:09.984Z,10.00
2022-11-02T21:24:37.189Z,10.00
2022-11-02T21:27:08.171Z,10.00
2022-11-02T21:29:36.095Z,10.10
2022-11-02T21:32:05.574Z,9.90
2022-11-02T21:34:34.100Z,10.00
2022-11-02T21:37:06.786Z,10.10
2022-11-02T21:39:35.555Z,10.10
2022-11-02T21:42:07.290Z,10.00
2022-11-02T21:44:35.579Z,10.00
2022-11-02T21:47:03.430Z,10.00
2022-11-02T21:49:32.156Z,10.00
2022-11-02T21:51:59.840Z,10.00
2022-11-02T21:54:30.001Z,10.00
2022-11-02T21:57:00.129Z,9.90
2022-11-02T21:59:27.295Z,9.80
2022-11-02T22:01:56.015Z,9.80
2022-11-02T22:04:29.333Z,9.80
2022-11-02T22:06:58.050Z,9.70
2022-11-02T22:09:26.052Z,9.70
2022-11-02T22:12:13.086Z,9.70
2022-11-02T22:14:41.598Z,9.70
2022-11-02T22:17:16.160Z,9.70
2022-11-02T22:19:45.649Z,9.70
2022-11-02T22:22:13.389Z,9.70
2022-11-02T22:24:44.919Z,9.70
2022-11-02T22:27:12.541Z,9.80
2022-11-02T22:29:43.151Z,9.80
2022-11-02T22:32:10.501Z,9.80
2022-11-02T22:34:38.062Z,9.70
2022-11-02T22:37:24.875Z,9.60
2022-11-02T22:39:53.647Z,9.70
2022-11-02T22:42:22.285Z,9.70
2022-11-02T22:44:49.988Z,9.60
2022-11-02T22:47:18.522Z,9.50
2022-11-02T22:49:48.215Z,9.50
2022-11-02T22:52:16.536Z,9.50
2022-11-02T22:54:43.811Z,9.50
2022-11-02T22:57:12.333Z,9.50
2022-11-02T22:59:39.826Z,9.50
2022-11-02T23:02:07.037Z,9.50
2022-11-02T23:04:34.167Z,9.50
2022-11-02T23:07:01.236Z,9.50
2022-11-02T23:09:28.347Z,9.40
2022-11-02T23:11:55.573Z,9.40
2022-11-02T23:14:25.843Z,9.40
2022-11-02T23:16:56.945Z,9.40
2022-11-02T23:19:28.579Z,9.50
2022-11-02T23:22:22.176Z,9.50
2022-11-02T23:25:11.551Z,9.60
2022-11-02T23:27:59.313Z,9.50
2022-11-02T23:30:47.002Z,9.40
2022-11-02T23:33:14.534Z,9.40
2022-11-02T23:36:00.843Z,9.40
2022-11-02T23:38:51.692Z,9.30
2022-11-02T23:41:19.798Z,9.30
2022-11-02T23:43:47.174Z,9.30
2022-11-02T23:46:15.174Z,9.30
2022-11-02T23:48:42.727Z,9.20
2022-11-02T23:51:28.877Z,9.20
2022-11-02T23:54:14.856Z,9.10
2022-11-02T23:56:44.832Z,9.10
2022-11-02T23:59:12.510Z,9.10
